sensor_id;sensor_type;location;lat;lon;timestamp;P1;durP1;ratioP1;P2;durP2;ratioP2
3359;SDS011;1693;49.602;11.046;2023-03-03T00:00:48;19.40;;;14.00;;
3359;SDS011;1693;49.602;11.046;2023-03-03T00:03:19;21.20;;;13.60;;
3359;SDS011;1693;49.602;11.046;2023-03-03T00:05:48;25.70;;;13.70;;
3359;SDS011;1693;49.602;11.046;2023-03-03T00:08:15;21.73;;;13.07;;
3359;SDS011;1693;49.602;11.046;2023-03-03T00:10:44;19.87;;;14.13;;
3359;SDS011;1693;49.602;11.046;2023-03-03T00:13:13;18.97;;;12.87;;
3359;SDS011;1693;49.602;11.046;2023-03-03T00:15:42;19.23;;;13.40;;
3359;SDS011;1693;49.602;11.046;2023-03-03T00:18:24;16.73;;;11.60;;
3359;SDS011;1693;49.602;11.046;2023-03-03T00:20:57;21.60;;;15.03;;
3359;SDS011;1693;49.602;11.046;2023-03-03T00:23:28;19.80;;;13.70;;
3359;SDS011;1693;49.602;11.046;2023-03-03T00:25:58;19.60;;;14.03;;
3359;SDS011;1693;49.602;11.046;2023-03-03T00:28:28;19.93;;;13.83;;
3359;SDS011;1693;49.602;11.046;2023-03-03T00:30:58;22.10;;;12.63;;
3359;SDS011;1693;49.602;11.046;2023-03-03T00:33:29;19.27;;;13.07;;
3359;SDS011;1693;49.602;11.046;2023-03-03T00:38:53;22.33;;;14.70;;
3359;SDS011;1693;49.602;11.046;2023-03-03T00:41:23;19.43;;;14.70;;
3359;SDS011;1693;49.602;11.046;2023-03-03T00:43:54;20.43;;;14.77;;
3359;SDS011;1693;49.602;11.046;2023-03-03T00:46:23;16.77;;;12.73;;
3359;SDS011;1693;49.602;11.046;2023-03-03T00:48:52;20.97;;;16.17;;
3359;SDS011;1693;49.602;11.046;2023-03-03T00:51:27;25.97;;;14.90;;
3359;SDS011;1693;49.602;11.046;2023-03-03T00:53:56;20.70;;;14.70;;
3359;SDS011;1693;49.602;11.046;2023-03-03T00:56:25;24.37;;;15.30;;
3359;SDS011;1693;49.602;11.046;2023-03-03T00:58:55;21.13;;;14.00;;
3359;SDS011;1693;49.602;11.046;2023-03-03T01:01:22;22.57;;;15.13;;
3359;SDS011;1693;49.602;11.046;2023-03-03T01:03:51;21.37;;;13.73;;
3359;SDS011;1693;49.602;11.046;2023-03-03T01:06:17;26.17;;;16.00;;
3359;SDS011;1693;49.602;11.046;2023-03-03T01:08:47;22.07;;;13.33;;
3359;SDS011;1693;49.602;11.046;2023-03-03T01:11:19;23.63;;;14.00;;
3359;SDS011;1693;49.602;11.046;2023-03-03T01:13:51;20.20;;;14.77;;
3359;SDS011;1693;49.602;11.046;2023-03-03T01:16:21;22.17;;;14.63;;
3359;SDS011;1693;49.602;11.046;2023-03-03T01:18:49;21.90;;;14.30;;
3359;SDS011;1693;49.602;11.046;2023-03-03T01:21:17;19.87;;;13.90;;
3359;SDS011;1693;49.602;11.046;2023-03-03T01:23:49;18.57;;;13.43;;
3359;SDS011;1693;49.602;11.046;2023-03-03T01:26:17;19.70;;;13.77;;
3359;SDS011;1693;49.602;11.046;2023-03-03T01:28:47;22.80;;;14.17;;
3359;SDS011;1693;49.602;11.046;2023-03-03T01:31:16;24.40;;;14.93;;
3359;SDS011;1693;49.602;11.046;2023-03-03T01:33:47;21.53;;;14.40;;
3359;SDS011;1693;49.602;11.046;2023-03-03T01:36:21;22.40;;;13.43;;
3359;SDS011;1693;49.602;11.046;2023-03-03T01:38:50;23.47;;;14.97;;
3359;SDS011;1693;49.602;11.046;2023-03-03T01:41:17;21.10;;;14.77;;
3359;SDS011;1693;49.602;11.046;2023-03-03T01:43:46;18.03;;;13.50;;
3359;SDS011;1693;49.602;11.046;2023-03-03T01:49:13;17.30;;;12.70;;
3359;SDS011;1693;49.602;11.046;2023-03-03T01:51:47;23.33;;;14.67;;
3359;SDS011;1693;49.602;11.046;2023-03-03T01:54:20;21.20;;;13.80;;
3359;SDS011;1693;49.602;11.046;2023-03-03T01:56:52;23.00;;;13.90;;
3359;SDS011;1693;49.602;11.046;2023-03-03T01:59:28;21.43;;;14.53;;
3359;SDS011;1693;49.602;11.046;2023-03-03T02:02:01;18.70;;;13.77;;
3359;SDS011;1693;49.602;11.046;2023-03-03T02:04:30;17.07;;;12.40;;
3359;SDS011;1693;49.602;11.046;2023-03-03T02:06:59;23.27;;;13.50;;
3359;SDS011;1693;49.602;11.046;2023-03-03T02:09:33;22.40;;;13.17;;
3359;SDS011;1693;49.602;11.046;2023-03-03T02:12:08;22.40;;;14.07;;
3359;SDS011;1693;49.602;11.046;2023-03-03T02:14:40;20.87;;;13.13;;
3359;SDS011;1693;49.602;11.046;2023-03-03T02:17:07;20.50;;;13.93;;
3359;SDS011;1693;49.602;11.046;2023-03-03T02:19:41;17.17;;;12.73;;
3359;SDS011;1693;49.602;11.046;2023-03-03T02:22:16;19.80;;;12.67;;
3359;SDS011;1693;49.602;11.046;2023-03-03T02:24:50;24.63;;;14.50;;
3359;SDS011;1693;49.602;11.046;2023-03-03T02:27:26;22.40;;;14.10;;
3359;SDS011;1693;49.602;11.046;2023-03-03T02:30:07;21.67;;;14.50;;
3359;SDS011;1693;49.602;11.046;2023-03-03T02:32:36;19.17;;;14.20;;
3359;SDS011;1693;49.602;11.046;2023-03-03T02:37:55;20.63;;;14.30;;
3359;SDS011;1693;49.602;11.046;2023-03-03T02:40:32;19.17;;;13.20;;
3359;SDS011;1693;49.602;11.046;2023-03-03T02:43:05;20.63;;;13.37;;
3359;SDS011;1693;49.602;11.046;2023-03-03T02:45:39;25.10;;;16.77;;
3359;SDS011;1693;49.602;11.046;2023-03-03T02:48:09;21.43;;;14.10;;
3359;SDS011;1693;49.602;11.046;2023-03-03T02:50:37;21.20;;;14.77;;
3359;SDS011;1693;49.602;11.046;2023-03-03T02:53:06;20.80;;;15.07;;
3359;SDS011;1693;49.602;11.046;2023-03-03T02:55:34;21.67;;;14.10;;
3359;SDS011;1693;49.602;11.046;2023-03-03T02:58:03;21.53;;;14.77;;
3359;SDS011;1693;49.602;11.046;2023-03-03T03:00:31;19.93;;;13.87;;
3359;SDS011;1693;49.602;11.046;2023-03-03T03:03:04;20.60;;;14.13;;
3359;SDS011;1693;49.602;11.046;2023-03-03T03:05:32;17.90;;;13.63;;
3359;SDS011;1693;49.602;11.046;2023-03-03T03:08:01;25.50;;;14.67;;
3359;SDS011;1693;49.602;11.046;2023-03-03T03:10:28;23.70;;;15.27;;
3359;SDS011;1693;49.602;11.046;2023-03-03T03:12:56;22.83;;;15.00;;
3359;SDS011;1693;49.602;11.046;2023-03-03T03:15:23;24.43;;;16.30;;
3359;SDS011;1693;49.602;11.046;2023-03-03T03:17:53;20.20;;;14.03;;
3359;SDS011;1693;49.602;11.046;2023-03-03T03:20:20;22.97;;;15.80;;
3359;SDS011;1693;49.602;11.046;2023-03-03T03:22:48;25.27;;;14.83;;
3359;SDS011;1693;49.602;11.046;2023-03-03T03:25:17;21.50;;;15.50;;
3359;SDS011;1693;49.602;11.046;2023-03-03T03:27:45;24.03;;;16.40;;
3359;SDS011;1693;49.602;11.046;2023-03-03T03:30:13;27.10;;;17.07;;
3359;SDS011;1693;49.602;11.046;2023-03-03T03:32:40;21.47;;;16.23;;
3359;SDS011;1693;49.602;11.046;2023-03-03T03:35:10;25.27;;;17.03;;
3359;SDS011;1693;49.602;11.046;2023-03-03T03:37:39;24.87;;;16.57;;
3359;SDS011;1693;49.602;11.046;2023-03-03T03:40:07;29.23;;;18.23;;
3359;SDS011;1693;49.602;11.046;2023-03-03T03:42:36;25.10;;;17.53;;
3359;SDS011;1693;49.602;11.046;2023-03-03T03:45:07;26.20;;;17.90;;
3359;SDS011;1693;49.602;11.046;2023-03-03T03:47:36;26.20;;;16.23;;
3359;SDS011;1693;49.602;11.046;2023-03-03T03:50:04;24.33;;;15.50;;
3359;SDS011;1693;49.602;11.046;2023-03-03T03:52:34;25.80;;;16.80;;
3359;SDS011;1693;49.602;11.046;2023-03-03T03:55:03;24.20;;;16.67;;
3359;SDS011;1693;49.602;11.046;2023-03-03T03:57:30;27.73;;;16.23;;
3359;SDS011;1693;49.602;11.046;2023-03-03T03:59:58;27.57;;;16.90;;
3359;SDS011;1693;49.602;11.046;2023-03-03T04:02:25;23.43;;;15.83;;
3359;SDS011;1693;49.602;11.046;2023-03-03T04:04:53;20.70;;;15.13;;
3359;SDS011;1693;49.602;11.046;2023-03-03T04:07:22;21.53;;;15.77;;
3359;SDS011;1693;49.602;11.046;2023-03-03T04:09:57;24.37;;;15.47;;
3359;SDS011;1693;49.602;11.046;2023-03-03T04:12:25;22.50;;;14.37;;
3359;SDS011;1693;49.602;11.046;2023-03-03T04:14:53;21.67;;;14.80;;
3359;SDS011;1693;49.602;11.046;2023-03-03T04:17:24;23.03;;;15.37;;
3359;SDS011;1693;49.602;11.046;2023-03-03T04:19:52;22.43;;;15.60;;
3359;SDS011;1693;49.602;11.046;2023-03-03T04:22:23;24.00;;;16.60;;
3359;SDS011;1693;49.602;11.046;2023-03-03T04:24:51;27.37;;;16.33;;
3359;SDS011;1693;49.602;11.046;2023-03-03T04:27:22;27.10;;;16.67;;
3359;SDS011;1693;49.602;11.046;2023-03-03T04:29:52;25.00;;;15.93;;
3359;SDS011;1693;49.602;11.046;2023-03-03T04:32:21;26.37;;;15.80;;
3359;SDS011;1693;49.602;11.046;2023-03-03T04:34:52;30.03;;;19.03;;
3359;SDS011;1693;49.602;11.046;2023-03-03T04:37:23;23.90;;;16.10;;
3359;SDS011;1693;49.602;11.046;2023-03-03T04:39:58;24.93;;;17.23;;
3359;SDS011;1693;49.602;11.046;2023-03-03T04:42:25;27.73;;;16.60;;
3359;SDS011;1693;49.602;11.046;2023-03-03T04:44:55;32.40;;;19.13;;
3359;SDS011;1693;49.602;11.046;2023-03-03T04:47:22;28.77;;;18.77;;
3359;SDS011;1693;49.602;11.046;2023-03-03T04:49:53;35.30;;;19.70;;
3359;SDS011;1693;49.602;11.046;2023-03-03T04:52:21;27.03;;;18.07;;
3359;SDS011;1693;49.602;11.046;2023-03-03T04:54:49;32.77;;;21.07;;
3359;SDS011;1693;49.602;11.046;2023-03-03T04:57:18;31.10;;;20.67;;
3359;SDS011;1693;49.602;11.046;2023-03-03T04:59:46;31.93;;;19.37;;
3359;SDS011;1693;49.602;11.046;2023-03-03T05:02:13;35.67;;;19.20;;
3359;SDS011;1693;49.602;11.046;2023-03-03T05:04:42;28.27;;;18.03;;
3359;SDS011;1693;49.602;11.046;2023-03-03T05:07:12;32.57;;;19.53;;
3359;SDS011;1693;49.602;11.046;2023-03-03T05:09:40;38.17;;;21.67;;
3359;SDS011;1693;49.602;11.046;2023-03-03T05:12:07;39.20;;;23.60;;
3359;SDS011;1693;49.602;11.046;2023-03-03T05:14:36;31.27;;;20.73;;
3359;SDS011;1693;49.602;11.046;2023-03-03T05:17:03;36.50;;;21.83;;
3359;SDS011;1693;49.602;11.046;2023-03-03T05:19:31;32.70;;;21.20;;
3359;SDS011;1693;49.602;11.046;2023-03-03T05:22:00;31.77;;;20.53;;
3359;SDS011;1693;49.602;11.046;2023-03-03T05:24:28;34.60;;;21.30;;
3359;SDS011;1693;49.602;11.046;2023-03-03T05:26:55;40.90;;;23.07;;
3359;SDS011;1693;49.602;11.046;2023-03-03T05:29:22;36.93;;;22.50;;
3359;SDS011;1693;49.602;11.046;2023-03-03T05:31:51;39.37;;;24.30;;
3359;SDS011;1693;49.602;11.046;2023-03-03T05:34:22;36.90;;;23.77;;
3359;SDS011;1693;49.602;11.046;2023-03-03T05:36:52;33.20;;;22.40;;
3359;SDS011;1693;49.602;11.046;2023-03-03T05:39:22;42.10;;;22.50;;
3359;SDS011;1693;49.602;11.046;2023-03-03T05:41:50;37.13;;;22.87;;
3359;SDS011;1693;49.602;11.046;2023-03-03T05:44:18;40.87;;;23.50;;
3359;SDS011;1693;49.602;11.046;2023-03-03T05:46:46;41.47;;;23.73;;
3359;SDS011;1693;49.602;11.046;2023-03-03T05:49:16;39.10;;;23.33;;
3359;SDS011;1693;49.602;11.046;2023-03-03T05:51:44;38.13;;;24.40;;
3359;SDS011;1693;49.602;11.046;2023-03-03T05:54:12;43.43;;;23.40;;
3359;SDS011;1693;49.602;11.046;2023-03-03T05:56:39;43.57;;;24.67;;
3359;SDS011;1693;49.602;11.046;2023-03-03T05:59:07;51.57;;;27.67;;
3359;SDS011;1693;49.602;11.046;2023-03-03T06:01:34;41.47;;;23.63;;
3359;SDS011;1693;49.602;11.046;2023-03-03T06:04:03;38.47;;;22.00;;
3359;SDS011;1693;49.602;11.046;2023-03-03T06:06:37;36.60;;;22.97;;
3359;SDS011;1693;49.602;11.046;2023-03-03T06:09:07;40.47;;;23.70;;
3359;SDS011;1693;49.602;11.046;2023-03-03T06:11:35;40.20;;;25.57;;
3359;SDS011;1693;49.602;11.046;2023-03-03T06:14:04;40.03;;;24.30;;
3359;SDS011;1693;49.602;11.046;2023-03-03T06:16:31;40.83;;;24.67;;
3359;SDS011;1693;49.602;11.046;2023-03-03T06:18:59;39.40;;;24.20;;
3359;SDS011;1693;49.602;11.046;2023-03-03T06:21:28;36.67;;;23.33;;
3359;SDS011;1693;49.602;11.046;2023-03-03T06:23:58;35.70;;;23.43;;
3359;SDS011;1693;49.602;11.046;2023-03-03T06:26:26;38.47;;;24.60;;
3359;SDS011;1693;49.602;11.046;2023-03-03T06:28:54;39.63;;;24.10;;
3359;SDS011;1693;49.602;11.046;2023-03-03T06:31:22;41.93;;;24.07;;
3359;SDS011;1693;49.602;11.046;2023-03-03T06:33:54;45.43;;;25.20;;
3359;SDS011;1693;49.602;11.046;2023-03-03T06:36:21;37.90;;;24.60;;
3359;SDS011;1693;49.602;11.046;2023-03-03T06:38:50;48.20;;;25.77;;
3359;SDS011;1693;49.602;11.046;2023-03-03T06:41:18;41.40;;;24.63;;
3359;SDS011;1693;49.602;11.046;2023-03-03T06:43:45;46.17;;;26.10;;
3359;SDS011;1693;49.602;11.046;2023-03-03T06:46:12;40.17;;;23.80;;
3359;SDS011;1693;49.602;11.046;2023-03-03T06:48:41;41.20;;;22.80;;
3359;SDS011;1693;49.602;11.046;2023-03-03T06:51:13;39.67;;;23.97;;
3359;SDS011;1693;49.602;11.046;2023-03-03T06:53:51;39.40;;;23.77;;
3359;SDS011;1693;49.602;11.046;2023-03-03T06:56:21;40.20;;;22.43;;
3359;SDS011;1693;49.602;11.046;2023-03-03T06:58:51;34.00;;;21.93;;
3359;SDS011;1693;49.602;11.046;2023-03-03T07:01:19;35.50;;;23.63;;
3359;SDS011;1693;49.602;11.046;2023-03-03T07:03:47;36.77;;;23.73;;
3359;SDS011;1693;49.602;11.046;2023-03-03T07:06:19;36.73;;;22.03;;
3359;SDS011;1693;49.602;11.046;2023-03-03T07:08:49;45.63;;;25.07;;
3359;SDS011;1693;49.602;11.046;2023-03-03T07:11:17;36.93;;;21.90;;
3359;SDS011;1693;49.602;11.046;2023-03-03T07:13:48;38.23;;;24.80;;
3359;SDS011;1693;49.602;11.046;2023-03-03T07:16:16;41.13;;;24.60;;
3359;SDS011;1693;49.602;11.046;2023-03-03T07:18:46;48.03;;;25.90;;
3359;SDS011;1693;49.602;11.046;2023-03-03T07:21:18;44.70;;;26.47;;
3359;SDS011;1693;49.602;11.046;2023-03-03T07:23:47;40.07;;;23.97;;
3359;SDS011;1693;49.602;11.046;2023-03-03T07:26:16;37.30;;;23.40;;
3359;SDS011;1693;49.602;11.046;2023-03-03T07:28:49;36.00;;;23.03;;
3359;SDS011;1693;49.602;11.046;2023-03-03T07:31:25;34.20;;;22.73;;
3359;SDS011;1693;49.602;11.046;2023-03-03T07:33:56;32.97;;;22.37;;
3359;SDS011;1693;49.602;11.046;2023-03-03T07:36:26;46.50;;;26.67;;
3359;SDS011;1693;49.602;11.046;2023-03-03T07:38:56;42.43;;;24.90;;
3359;SDS011;1693;49.602;11.046;2023-03-03T07:41:25;37.07;;;23.47;;
3359;SDS011;1693;49.602;11.046;2023-03-03T07:43:55;39.13;;;25.20;;
3359;SDS011;1693;49.602;11.046;2023-03-03T07:46:26;44.40;;;24.20;;
3359;SDS011;1693;49.602;11.046;2023-03-03T07:48:56;38.80;;;23.63;;
3359;SDS011;1693;49.602;11.046;2023-03-03T07:51:25;45.30;;;21.80;;
3359;SDS011;1693;49.602;11.046;2023-03-03T07:53:55;37.03;;;22.57;;
3359;SDS011;1693;49.602;11.046;2023-03-03T07:56:36;37.90;;;22.37;;
3359;SDS011;1693;49.602;11.046;2023-03-03T07:59:12;43.37;;;24.27;;
3359;SDS011;1693;49.602;11.046;2023-03-03T08:01:46;38.20;;;23.73;;
3359;SDS011;1693;49.602;11.046;2023-03-03T08:04:18;36.20;;;21.37;;
3359;SDS011;1693;49.602;11.046;2023-03-03T08:06:50;37.53;;;22.03;;
3359;SDS011;1693;49.602;11.046;2023-03-03T08:15:24;40.13;;;23.90;;
3359;SDS011;1693;49.602;11.046;2023-03-03T08:17:58;35.20;;;21.93;;
3359;SDS011;1693;49.602;11.046;2023-03-03T08:23:18;37.20;;;22.57;;
3359;SDS011;1693;49.602;11.046;2023-03-03T08:25:47;40.33;;;23.13;;
3359;SDS011;1693;49.602;11.046;2023-03-03T08:28:16;34.03;;;20.80;;
3359;SDS011;1693;49.602;11.046;2023-03-03T08:30:54;44.67;;;24.60;;
3359;SDS011;1693;49.602;11.046;2023-03-03T08:33:25;36.20;;;22.20;;
3359;SDS011;1693;49.602;11.046;2023-03-03T08:36:07;32.10;;;20.50;;
3359;SDS011;1693;49.602;11.046;2023-03-03T08:38:37;31.57;;;21.50;;
3359;SDS011;1693;49.602;11.046;2023-03-03T08:41:06;29.87;;;20.30;;
3359;SDS011;1693;49.602;11.046;2023-03-03T08:43:34;31.40;;;20.70;;
3359;SDS011;1693;49.602;11.046;2023-03-03T08:46:05;32.77;;;21.77;;
3359;SDS011;1693;49.602;11.046;2023-03-03T08:48:35;34.53;;;20.27;;
3359;SDS011;1693;49.602;11.046;2023-03-03T08:51:02;31.17;;;21.00;;
3359;SDS011;1693;49.602;11.046;2023-03-03T08:53:30;28.50;;;18.47;;
3359;SDS011;1693;49.602;11.046;2023-03-03T08:56:00;37.83;;;19.67;;
3359;SDS011;1693;49.602;11.046;2023-03-03T08:58:29;30.53;;;20.07;;
3359;SDS011;1693;49.602;11.046;2023-03-03T09:00:56;31.60;;;19.60;;
3359;SDS011;1693;49.602;11.046;2023-03-03T09:03:26;29.17;;;20.20;;
3359;SDS011;1693;49.602;11.046;2023-03-03T09:05:55;31.50;;;18.93;;
3359;SDS011;1693;49.602;11.046;2023-03-03T09:08:22;32.93;;;19.80;;
3359;SDS011;1693;49.602;11.046;2023-03-03T09:10:49;31.90;;;19.80;;
3359;SDS011;1693;49.602;11.046;2023-03-03T09:13:16;31.83;;;18.30;;
3359;SDS011;1693;49.602;11.046;2023-03-03T09:15:44;32.57;;;18.80;;
3359;SDS011;1693;49.602;11.046;2023-03-03T09:18:13;35.97;;;20.50;;
3359;SDS011;1693;49.602;11.046;2023-03-03T09:20:44;31.43;;;19.67;;
3359;SDS011;1693;49.602;11.046;2023-03-03T09:23:30;29.73;;;19.40;;
3359;SDS011;1693;49.602;11.046;2023-03-03T09:29:18;25.53;;;17.33;;
3359;SDS011;1693;49.602;11.046;2023-03-03T09:31:50;30.17;;;19.13;;
3359;SDS011;1693;49.602;11.046;2023-03-03T09:34:19;28.30;;;18.20;;
3359;SDS011;1693;49.602;11.046;2023-03-03T09:36:50;27.53;;;18.10;;
3359;SDS011;1693;49.602;11.046;2023-03-03T09:39:36;28.13;;;18.80;;
3359;SDS011;1693;49.602;11.046;2023-03-03T09:56:11;28.30;;;17.93;;
3359;SDS011;1693;49.602;11.046;2023-03-03T09:58:54;26.07;;;16.80;;
3359;SDS011;1693;49.602;11.046;2023-03-03T10:01:42;25.60;;;17.13;;
3359;SDS011;1693;49.602;11.046;2023-03-03T10:07:17;25.03;;;17.90;;
3359;SDS011;1693;49.602;11.046;2023-03-03T10:13:05;26.37;;;16.90;;
3359;SDS011;1693;49.602;11.046;2023-03-03T10:15:42;21.57;;;15.40;;
3359;SDS011;1693;49.602;11.046;2023-03-03T10:21:40;27.87;;;15.93;;
3359;SDS011;1693;49.602;11.046;2023-03-03T10:24:19;22.07;;;15.80;;
3359;SDS011;1693;49.602;11.046;2023-03-03T10:27:04;19.37;;;13.63;;
3359;SDS011;1693;49.602;11.046;2023-03-03T10:29:57;22.40;;;15.33;;
3359;SDS011;1693;49.602;11.046;2023-03-03T10:32:36;22.00;;;15.13;;
3359;SDS011;1693;49.602;11.046;2023-03-03T10:38:18;23.27;;;13.83;;
3359;SDS011;1693;49.602;11.046;2023-03-03T10:40:58;20.93;;;14.33;;
3359;SDS011;1693;49.602;11.046;2023-03-03T10:44:01;19.93;;;14.90;;
3359;SDS011;1693;49.602;11.046;2023-03-03T10:46:52;22.07;;;13.77;;
3359;SDS011;1693;49.602;11.046;2023-03-03T10:49:26;22.07;;;13.00;;
3359;SDS011;1693;49.602;11.046;2023-03-03T10:52:10;16.97;;;13.10;;
3359;SDS011;1693;49.602;11.046;2023-03-03T10:55:00;17.13;;;13.13;;
3359;SDS011;1693;49.602;11.046;2023-03-03T10:57:44;16.87;;;13.00;;
3359;SDS011;1693;49.602;11.046;2023-03-03T11:00:20;19.93;;;13.00;;
3359;SDS011;1693;49.602;11.046;2023-03-03T11:06:05;19.30;;;13.00;;
3359;SDS011;1693;49.602;11.046;2023-03-03T11:08:40;18.23;;;12.13;;
3359;SDS011;1693;49.602;11.046;2023-03-03T11:11:12;16.73;;;11.37;;
3359;SDS011;1693;49.602;11.046;2023-03-03T11:13:49;18.30;;;11.87;;
3359;SDS011;1693;49.602;11.046;2023-03-03T11:16:29;20.50;;;12.13;;
3359;SDS011;1693;49.602;11.046;2023-03-03T11:19:15;17.20;;;12.63;;
3359;SDS011;1693;49.602;11.046;2023-03-03T11:22:03;19.77;;;12.17;;
3359;SDS011;1693;49.602;11.046;2023-03-03T11:24:41;18.03;;;12.57;;
3359;SDS011;1693;49.602;11.046;2023-03-03T11:27:24;17.20;;;10.37;;
3359;SDS011;1693;49.602;11.046;2023-03-03T11:30:27;17.00;;;10.57;;
3359;SDS011;1693;49.602;11.046;2023-03-03T11:33:01;17.37;;;13.53;;
3359;SDS011;1693;49.602;11.046;2023-03-03T11:35:35;15.00;;;11.53;;
3359;SDS011;1693;49.602;11.046;2023-03-03T11:38:15;16.40;;;11.80;;
3359;SDS011;1693;49.602;11.046;2023-03-03T11:40:52;19.27;;;12.87;;
3359;SDS011;1693;49.602;11.046;2023-03-03T11:43:24;15.13;;;12.90;;
3359;SDS011;1693;49.602;11.046;2023-03-03T11:45:56;19.60;;;12.50;;
3359;SDS011;1693;49.602;11.046;2023-03-03T11:48:31;16.23;;;11.63;;
3359;SDS011;1693;49.602;11.046;2023-03-03T11:51:04;21.27;;;11.83;;
3359;SDS011;1693;49.602;11.046;2023-03-03T11:53:38;17.40;;;11.80;;
3359;SDS011;1693;49.602;11.046;2023-03-03T11:56:17;11.70;;;9.10;;
3359;SDS011;1693;49.602;11.046;2023-03-03T11:58:52;18.97;;;10.40;;
3359;SDS011;1693;49.602;11.046;2023-03-03T12:01:28;17.00;;;11.37;;
3359;SDS011;1693;49.602;11.046;2023-03-03T12:03:59;14.47;;;10.13;;
3359;SDS011;1693;49.602;11.046;2023-03-03T12:06:36;14.37;;;10.17;;
3359;SDS011;1693;49.602;11.046;2023-03-03T12:09:33;14.60;;;10.07;;
3359;SDS011;1693;49.602;11.046;2023-03-03T12:12:10;18.43;;;10.07;;
3359;SDS011;1693;49.602;11.046;2023-03-03T12:14:48;15.17;;;10.83;;
3359;SDS011;1693;49.602;11.046;2023-03-03T12:20:23;13.03;;;10.07;;
3359;SDS011;1693;49.602;11.046;2023-03-03T12:23:01;18.93;;;10.10;;
3359;SDS011;1693;49.602;11.046;2023-03-03T12:25:42;16.67;;;11.87;;
3359;SDS011;1693;49.602;11.046;2023-03-03T12:28:15;15.70;;;11.00;;
3359;SDS011;1693;49.602;11.046;2023-03-03T12:31:04;18.23;;;11.00;;
3359;SDS011;1693;49.602;11.046;2023-03-03T12:33:52;17.60;;;11.67;;
3359;SDS011;1693;49.602;11.046;2023-03-03T12:36:36;14.90;;;9.97;;
3359;SDS011;1693;49.602;11.046;2023-03-03T12:39:39;13.50;;;9.23;;
3359;SDS011;1693;49.602;11.046;2023-03-03T12:42:21;13.47;;;9.43;;
3359;SDS011;1693;49.602;11.046;2023-03-03T12:44:57;18.63;;;11.70;;
3359;SDS011;1693;49.602;11.046;2023-03-03T12:47:37;18.97;;;10.33;;
3359;SDS011;1693;49.602;11.046;2023-03-03T12:50:13;12.17;;;8.90;;
3359;SDS011;1693;49.602;11.046;2023-03-03T12:52:58;14.33;;;9.20;;
3359;SDS011;1693;49.602;11.046;2023-03-03T12:55:35;17.70;;;9.17;;
3359;SDS011;1693;49.602;11.046;2023-03-03T12:58:10;18.40;;;9.73;;
3359;SDS011;1693;49.602;11.046;2023-03-03T13:00:51;15.17;;;10.53;;
3359;SDS011;1693;49.602;11.046;2023-03-03T13:03:31;13.63;;;9.60;;
3359;SDS011;1693;49.602;11.046;2023-03-03T13:06:06;14.13;;;10.90;;
3359;SDS011;1693;49.602;11.046;2023-03-03T13:08:48;12.70;;;9.63;;
3359;SDS011;1693;49.602;11.046;2023-03-03T13:11:30;12.10;;;9.43;;
3359;SDS011;1693;49.602;11.046;2023-03-03T13:14:10;15.47;;;9.83;;
3359;SDS011;1693;49.602;11.046;2023-03-03T13:16:47;12.27;;;9.00;;
3359;SDS011;1693;49.602;11.046;2023-03-03T13:19:28;14.43;;;8.40;;
3359;SDS011;1693;49.602;11.046;2023-03-03T13:22:03;12.27;;;9.37;;
3359;SDS011;1693;49.602;11.046;2023-03-03T13:24:37;13.60;;;9.50;;
3359;SDS011;1693;49.602;11.046;2023-03-03T13:27:13;13.50;;;8.50;;
3359;SDS011;1693;49.602;11.046;2023-03-03T13:29:47;15.07;;;9.77;;
3359;SDS011;1693;49.602;11.046;2023-03-03T13:32:23;12.70;;;8.70;;
3359;SDS011;1693;49.602;11.046;2023-03-03T13:34:58;31.63;;;9.30;;
3359;SDS011;1693;49.602;11.046;2023-03-03T13:37:32;11.70;;;9.83;;
3359;SDS011;1693;49.602;11.046;2023-03-03T13:40:12;12.20;;;9.30;;
3359;SDS011;1693;49.602;11.046;2023-03-03T13:42:44;13.30;;;8.13;;
3359;SDS011;1693;49.602;11.046;2023-03-03T13:45:16;12.03;;;8.27;;
3359;SDS011;1693;49.602;11.046;2023-03-03T13:47:52;11.30;;;8.80;;
3359;SDS011;1693;49.602;11.046;2023-03-03T13:50:46;15.90;;;8.93;;
3359;SDS011;1693;49.602;11.046;2023-03-03T13:53:40;12.77;;;8.40;;
3359;SDS011;1693;49.602;11.046;2023-03-03T13:56:48;15.10;;;8.33;;
3359;SDS011;1693;49.602;11.046;2023-03-03T13:59:29;12.60;;;9.70;;
3359;SDS011;1693;49.602;11.046;2023-03-03T14:02:09;16.20;;;9.37;;
3359;SDS011;1693;49.602;11.046;2023-03-03T14:05:00;14.60;;;10.00;;
3359;SDS011;1693;49.602;11.046;2023-03-03T14:07:29;16.53;;;9.40;;
3359;SDS011;1693;49.602;11.046;2023-03-03T14:10:01;12.93;;;8.87;;
3359;SDS011;1693;49.602;11.046;2023-03-03T14:12:39;13.17;;;9.93;;
3359;SDS011;1693;49.602;11.046;2023-03-03T14:15:17;11.00;;;8.00;;
3359;SDS011;1693;49.602;11.046;2023-03-03T14:17:54;16.33;;;10.20;;
3359;SDS011;1693;49.602;11.046;2023-03-03T14:20:37;12.17;;;9.13;;
3359;SDS011;1693;49.602;11.046;2023-03-03T14:23:09;12.53;;;8.83;;
3359;SDS011;1693;49.602;11.046;2023-03-03T14:25:58;17.10;;;8.80;;
3359;SDS011;1693;49.602;11.046;2023-03-03T14:28:37;16.80;;;9.17;;
3359;SDS011;1693;49.602;11.046;2023-03-03T14:31:15;15.10;;;9.33;;
3359;SDS011;1693;49.602;11.046;2023-03-03T14:33:55;9.70;;;7.57;;
3359;SDS011;1693;49.602;11.046;2023-03-03T14:36:25;11.50;;;8.70;;
3359;SDS011;1693;49.602;11.046;2023-03-03T14:38:55;13.87;;;9.30;;
3359;SDS011;1693;49.602;11.046;2023-03-03T14:41:33;14.63;;;8.97;;
3359;SDS011;1693;49.602;11.046;2023-03-03T14:47:05;12.90;;;8.33;;
3359;SDS011;1693;49.602;11.046;2023-03-03T14:49:44;12.27;;;8.57;;
3359;SDS011;1693;49.602;11.046;2023-03-03T14:52:18;15.53;;;8.83;;
3359;SDS011;1693;49.602;11.046;2023-03-03T14:54:49;13.70;;;7.97;;
3359;SDS011;1693;49.602;11.046;2023-03-03T14:57:18;14.47;;;8.20;;
3359;SDS011;1693;49.602;11.046;2023-03-03T14:59:56;16.73;;;7.53;;
3359;SDS011;1693;49.602;11.046;2023-03-03T15:02:29;12.43;;;7.80;;
3359;SDS011;1693;49.602;11.046;2023-03-03T15:07:56;12.20;;;8.93;;
3359;SDS011;1693;49.602;11.046;2023-03-03T15:10:35;12.47;;;9.00;;
3359;SDS011;1693;49.602;11.046;2023-03-03T15:16:00;12.00;;;6.83;;
3359;SDS011;1693;49.602;11.046;2023-03-03T15:21:46;12.30;;;7.60;;
3359;SDS011;1693;49.602;11.046;2023-03-03T15:24:22;11.70;;;7.50;;
3359;SDS011;1693;49.602;11.046;2023-03-03T15:26:59;17.87;;;8.70;;
3359;SDS011;1693;49.602;11.046;2023-03-03T15:29:49;10.73;;;6.80;;
3359;SDS011;1693;49.602;11.046;2023-03-03T15:32:24;11.67;;;8.07;;
3359;SDS011;1693;49.602;11.046;2023-03-03T15:34:56;10.67;;;7.00;;
3359;SDS011;1693;49.602;11.046;2023-03-03T15:37:31;11.17;;;7.93;;
3359;SDS011;1693;49.602;11.046;2023-03-03T15:40:11;12.07;;;6.70;;
3359;SDS011;1693;49.602;11.046;2023-03-03T15:42:47;11.97;;;7.40;;
3359;SDS011;1693;49.602;11.046;2023-03-03T15:45:17;10.00;;;6.77;;
3359;SDS011;1693;49.602;11.046;2023-03-03T15:47:57;11.47;;;7.77;;
3359;SDS011;1693;49.602;11.046;2023-03-03T15:50:40;14.53;;;7.97;;
3359;SDS011;1693;49.602;11.046;2023-03-03T15:56:08;12.90;;;7.20;;
3359;SDS011;1693;49.602;11.046;2023-03-03T16:01:59;10.97;;;7.13;;
3359;SDS011;1693;49.602;11.046;2023-03-03T16:04:37;9.23;;;6.50;;
3359;SDS011;1693;49.602;11.046;2023-03-03T16:07:12;13.67;;;7.47;;
3359;SDS011;1693;49.602;11.046;2023-03-03T16:09:53;12.07;;;7.77;;
3359;SDS011;1693;49.602;11.046;2023-03-03T16:12:30;10.00;;;6.70;;
3359;SDS011;1693;49.602;11.046;2023-03-03T16:17:54;9.80;;;6.93;;
3359;SDS011;1693;49.602;11.046;2023-03-03T16:20:27;10.07;;;6.57;;
3359;SDS011;1693;49.602;11.046;2023-03-03T16:23:08;8.43;;;6.70;;
3359;SDS011;1693;49.602;11.046;2023-03-03T16:28:46;9.40;;;5.93;;
3359;SDS011;1693;49.602;11.046;2023-03-03T16:31:21;11.90;;;5.90;;